createdAt,value
2023-03-28T00:02:27.471Z,18.80
2023-03-28T00:08:08.127Z,15.80
2023-03-28T00:11:04.119Z,16.60
2023-03-28T00:14:00.711Z,13.70
2023-03-28T00:16:50.764Z,14.70
2023-03-28T00:19:41.517Z,14.50
2023-03-28T00:22:30.752Z,19.10
2023-03-28T00:25:21.091Z,18.60
2023-03-28T00:28:10.441Z,20.70
2023-03-28T00:31:03.741Z,17.40
2023-03-28T00:33:54.133Z,15.40
2023-03-28T00:36:43.053Z,16.60
2023-03-28T00:39:34.811Z,15.70
2023-03-28T00:42:24.054Z,16.20
2023-03-28T00:45:15.819Z,17.20
2023-03-28T00:48:15.166Z,16.80
2023-03-28T00:51:05.955Z,13.90
2023-03-28T00:54:01.089Z,17.20
2023-03-28T00:56:55.872Z,12.80
2023-03-28T00:59:44.929Z,16.00
2023-03-28T01:03:37.891Z,17.30
2023-03-28T01:06:27.193Z,14.80
2023-03-28T01:09:17.147Z,14.60
2023-03-28T01:12:10.429Z,21.70
2023-03-28T01:15:00.940Z,19.90
2023-03-28T01:18:03.224Z,16.70
2023-03-28T01:21:31.348Z,17.60
2023-03-28T01:24:58.260Z,18.30
2023-03-28T01:28:02.468Z,15.00
2023-03-28T01:31:25.663Z,14.80
2023-03-28T01:34:41.930Z,15.40
2023-03-28T01:38:01.604Z,19.90
2023-03-28T01:40:59.306Z,17.70
2023-03-28T01:44:01.500Z,17.30
2023-03-28T01:47:27.671Z,17.00
2023-03-28T01:50:23.821Z,15.20
2023-03-28T01:53:18.223Z,17.20
2023-03-28T01:56:22.506Z,17.10
2023-03-28T01:59:27.015Z,14.60
2023-03-28T02:02:54.428Z,13.20
2023-03-28T02:05:53.710Z,18.90
2023-03-28T02:08:45.282Z,12.60
2023-03-28T02:11:58.272Z,20.20
2023-03-28T02:14:54.591Z,23.40
2023-03-28T02:18:17.190Z,15.90
2023-03-28T02:21:19.794Z,16.70
2023-03-28T02:24:35.069Z,16.90
2023-03-28T02:27:46.642Z,17.30
2023-03-28T02:30:55.371Z,14.70
2023-03-28T02:33:47.034Z,18.10
2023-03-28T02:36:43.250Z,16.50
2023-03-28T02:39:43.791Z,15.60
2023-03-28T02:42:53.299Z,12.50
2023-03-28T02:46:09.027Z,15.50
2023-03-28T02:49:10.656Z,14.50
2023-03-28T02:52:21.912Z,18.00
2023-03-28T02:55:41.309Z,13.20
2023-03-28T02:58:55.154Z,14.90
2023-03-28T03:01:45.162Z,17.30
2023-03-28T03:04:33.914Z,18.80
2023-03-28T03:07:22.997Z,19.30
2023-03-28T03:10:12.626Z,15.60
2023-03-28T03:13:01.322Z,13.50
2023-03-28T03:15:50.920Z,14.10
2023-03-28T03:18:46.380Z,15.30
2023-03-28T03:21:37.192Z,13.20
2023-03-28T03:24:25.913Z,12.80
2023-03-28T03:27:14.759Z,12.90
2023-03-28T03:30:05.483Z,10.70
2023-03-28T03:33:06.040Z,12.50
2023-03-28T03:35:54.835Z,11.00
2023-03-28T03:38:43.687Z,13.40
2023-03-28T03:41:36.428Z,12.90
2023-03-28T03:44:27.817Z,11.60
2023-03-28T03:47:17.952Z,11.00
2023-03-28T03:50:08.313Z,12.10
2023-03-28T03:52:58.961Z,8.60
2023-03-28T03:55:54.974Z,7.70
2023-03-28T03:58:43.823Z,9.90
2023-03-28T04:01:34.637Z,10.40
2023-03-28T04:04:33.691Z,11.20
2023-03-28T04:07:28.004Z,12.00
2023-03-28T04:10:17.364Z,8.80
2023-03-28T04:13:07.886Z,11.40
2023-03-28T04:15:57.704Z,8.90
2023-03-28T04:19:01.352Z,11.40
2023-03-28T04:21:52.752Z,9.90
2023-03-28T04:24:44.723Z,10.40
2023-03-28T04:27:48.892Z,10.20
2023-03-28T04:30:38.553Z,8.50
2023-03-28T04:33:46.032Z,10.00
2023-03-28T04:36:38.042Z,10.00
2023-03-28T04:39:31.873Z,8.60
2023-03-28T04:42:46.853Z,8.30
2023-03-28T04:45:42.457Z,8.50
2023-03-28T04:48:35.116Z,9.50
2023-03-28T04:51:25.179Z,9.70
2023-03-28T04:54:13.992Z,9.30
2023-03-28T04:57:09.123Z,9.00
2023-03-28T05:00:17.295Z,9.40
2023-03-28T05:03:34.975Z,10.30
2023-03-28T05:06:26.101Z,13.90
2023-03-28T05:09:16.619Z,11.70
2023-03-28T05:12:06.007Z,7.70
2023-03-28T05:14:57.653Z,11.00
2023-03-28T05:17:46.872Z,11.40
2023-03-28T05:20:49.169Z,7.50
2023-03-28T05:23:37.837Z,11.40
2023-03-28T05:26:33.296Z,9.20
2023-03-28T05:29:22.125Z,8.20
2023-03-28T05:32:12.911Z,10.20
2023-03-28T05:35:02.834Z,9.60
2023-03-28T05:37:53.408Z,11.10
2023-03-28T05:40:42.018Z,5.90
2023-03-28T05:43:31.082Z,8.10
2023-03-28T05:46:20.249Z,11.00
2023-03-28T05:49:12.045Z,10.10
2023-03-28T05:52:01.119Z,12.50
2023-03-28T05:54:52.329Z,11.20
2023-03-28T05:57:44.290Z,17.10
2023-03-28T06:03:23.929Z,11.50
2023-03-28T06:06:13.803Z,11.80
2023-03-28T06:09:02.762Z,10.00
2023-03-28T06:11:54.528Z,5.80
2023-03-28T06:14:43.560Z,8.90
2023-03-28T06:17:42.361Z,5.10
2023-03-28T06:20:31.450Z,5.20
2023-03-28T06:23:20.472Z,4.50
2023-03-28T06:26:09.347Z,6.40
2023-03-28T06:29:02.577Z,6.70
2023-03-28T06:31:59.236Z,4.00
2023-03-28T06:34:48.339Z,4.70
2023-03-28T06:37:37.201Z,4.90
2023-03-28T06:40:29.007Z,5.60
2023-03-28T06:43:17.978Z,4.70
2023-03-28T06:46:25.796Z,5.10
2023-03-28T06:49:14.793Z,7.20
2023-03-28T06:52:23.316Z,5.30
2023-03-28T06:55:12.700Z,4.00
2023-03-28T06:58:01.844Z,4.70
2023-03-28T07:00:59.371Z,4.50
2023-03-28T07:03:52.534Z,6.10
2023-03-28T07:06:43.230Z,9.50
2023-03-28T07:09:32.103Z,7.20
2023-03-28T07:12:26.429Z,4.00
2023-03-28T07:15:16.789Z,7.20
2023-03-28T07:21:04.019Z,5.20
2023-03-28T07:23:53.430Z,6.70
2023-03-28T07:26:45.460Z,5.50
2023-03-28T07:29:34.132Z,4.70
2023-03-28T07:32:23.075Z,7.40
2023-03-28T07:35:11.908Z,9.40
2023-03-28T07:38:07.880Z,8.20
2023-03-28T07:41:08.420Z,5.00
2023-03-28T07:43:58.015Z,4.70
2023-03-28T07:46:47.051Z,5.30
2023-03-28T07:49:36.500Z,3.50
2023-03-28T07:52:25.323Z,3.30
2023-03-28T07:55:15.061Z,3.70
2023-03-28T07:58:07.652Z,2.90
2023-03-28T08:01:08.436Z,3.60
2023-03-28T08:04:04.391Z,3.60
2023-03-28T08:07:10.765Z,5.90
2023-03-28T08:10:01.468Z,4.20
2023-03-28T08:12:51.591Z,4.80
2023-03-28T08:15:40.562Z,7.30
2023-03-28T08:18:29.978Z,9.00
2023-03-28T08:21:18.915Z,6.30
2023-03-28T08:24:08.861Z,5.80
2023-03-28T08:27:03.375Z,7.20
2023-03-28T08:29:52.570Z,6.90
2023-03-28T08:32:41.857Z,9.70
2023-03-28T08:35:32.861Z,6.80
2023-03-28T08:38:24.970Z,5.20
2023-03-28T08:41:51.652Z,5.60
2023-03-28T08:44:49.634Z,5.20
2023-03-28T08:48:16.648Z,16.00
2023-03-28T08:51:21.014Z,7.60
2023-03-28T08:54:13.326Z,6.40
2023-03-28T08:57:05.444Z,9.20
2023-03-28T09:00:00.830Z,9.70
2023-03-28T09:02:51.877Z,8.00
2023-03-28T09:06:20.081Z,7.10
2023-03-28T09:09:18.853Z,7.50
2023-03-28T09:12:34.608Z,8.60
2023-03-28T09:15:34.818Z,8.20
2023-03-28T09:29:48.557Z,9.80
2023-03-28T09:32:41.852Z,6.90
2023-03-28T09:35:32.479Z,3.30
2023-03-28T09:38:26.517Z,3.90
2023-03-28T09:41:23.414Z,16.40
2023-03-28T09:44:53.607Z,5.20
2023-03-28T09:48:19.823Z,7.00
2023-03-28T09:51:16.922Z,4.40
2023-03-28T09:54:08.404Z,4.70
2023-03-28T09:57:02.622Z,5.40
2023-03-28T10:00:21.729Z,5.50
2023-03-28T10:03:23.586Z,4.00
2023-03-28T10:06:25.931Z,5.90
2023-03-28T10:12:32.444Z,6.20
2023-03-28T10:15:43.224Z,5.00
2023-03-28T10:18:50.893Z,6.80
2023-03-28T10:21:53.113Z,7.40
2023-03-28T10:24:47.042Z,4.00
2023-03-28T10:27:37.576Z,5.30
2023-03-28T10:30:30.265Z,6.20
2023-03-28T10:33:36.843Z,13.50
2023-03-28T10:36:43.832Z,10.00
2023-03-28T10:39:35.577Z,3.60
2023-03-28T10:42:47.150Z,3.00
2023-03-28T10:46:03.090Z,5.00
2023-03-28T10:49:20.548Z,5.50
2023-03-28T10:52:35.942Z,3.10
2023-03-28T10:55:31.763Z,2.70
2023-03-28T10:58:46.845Z,4.90
2023-03-28T11:05:01.731Z,6.70
2023-03-28T11:08:07.325Z,5.90
2023-03-28T11:11:27.327Z,6.50
2023-03-28T11:14:49.343Z,3.10
2023-03-28T11:18:16.761Z,3.90
2023-03-28T11:21:20.076Z,4.20
2023-03-28T11:24:15.356Z,4.50
2023-03-28T11:27:21.288Z,5.90
2023-03-28T11:30:35.161Z,7.60
2023-03-28T11:33:44.304Z,7.60
2023-03-28T11:36:49.088Z,5.50
2023-03-28T11:39:49.198Z,4.50
2023-03-28T11:42:51.767Z,6.90
2023-03-28T11:45:50.898Z,4.10
2023-03-28T11:49:08.139Z,4.90
2023-03-28T11:52:17.010Z,3.40
2023-03-28T11:55:20.877Z,6.20
2023-03-28T11:58:33.492Z,4.70
2023-03-28T12:01:27.114Z,5.10
2023-03-28T12:04:27.708Z,8.00
2023-03-28T12:07:22.957Z,6.80
2023-03-28T12:10:26.906Z,4.70
2023-03-28T12:13:31.827Z,7.90
2023-03-28T12:16:31.840Z,10.00
2023-03-28T12:19:32.761Z,5.70
2023-03-28T12:22:54.350Z,3.70
2023-03-28T12:26:13.457Z,4.60
2023-03-28T12:29:17.606Z,4.00
2023-03-28T12:32:46.686Z,6.20
2023-03-28T12:35:48.837Z,8.00
2023-03-28T12:41:47.268Z,5.10
2023-03-28T12:44:45.794Z,6.10
2023-03-28T12:47:49.362Z,4.30
2023-03-28T12:50:52.592Z,3.10
2023-03-28T12:54:07.640Z,4.80
2023-03-28T12:57:41.509Z,4.10
2023-03-28T13:01:06.410Z,6.50
2023-03-28T13:04:06.713Z,3.40
2023-03-28T13:07:25.498Z,3.50
2023-03-28T13:10:24.299Z,4.70
2023-03-28T13:13:24.133Z,5.00
2023-03-28T13:16:24.811Z,3.80
2023-03-28T13:19:18.006Z,3.80
2023-03-28T13:22:24.058Z,4.70
2023-03-28T13:25:33.530Z,3.30
2023-03-28T13:28:30.853Z,3.00
2023-03-28T13:31:21.613Z,6.00
2023-03-28T13:34:22.056Z,3.30
2023-03-28T13:37:24.817Z,3.20
2023-03-28T13:40:51.369Z,5.90
2023-03-28T13:43:56.292Z,5.60
2023-03-28T13:46:47.783Z,4.90
2023-03-28T13:49:52.968Z,4.70
2023-03-28T13:52:42.114Z,3.70
2023-03-28T13:55:31.383Z,3.80
2023-03-28T13:58:21.220Z,2.60
2023-03-28T14:01:18.041Z,10.50
2023-03-28T14:04:16.372Z,3.40
2023-03-28T14:07:07.878Z,7.80
2023-03-28T14:09:57.492Z,5.20
2023-03-28T14:12:48.064Z,3.90
2023-03-28T14:15:39.988Z,5.20
2023-03-28T14:18:36.464Z,4.00
2023-03-28T14:21:25.686Z,2.90
2023-03-28T14:24:27.356Z,4.80
2023-03-28T14:27:27.894Z,5.50
2023-03-28T14:30:30.752Z,3.10
2023-03-28T14:33:21.437Z,5.00
2023-03-28T14:36:11.234Z,4.50
2023-03-28T14:39:11.175Z,12.10
2023-03-28T14:44:54.090Z,5.10
2023-03-28T14:47:43.746Z,3.00
2023-03-28T14:50:38.216Z,6.50
2023-03-28T14:53:28.836Z,5.40
2023-03-28T14:56:28.008Z,6.60
2023-03-28T14:59:19.969Z,5.30
2023-03-28T15:02:24.614Z,5.60
2023-03-28T15:05:18.018Z,5.40
2023-03-28T15:08:22.783Z,5.70
2023-03-28T15:11:19.976Z,6.90
2023-03-28T15:14:22.476Z,8.80
2023-03-28T15:17:19.922Z,10.00
2023-03-28T15:33:07.878Z,6.10
2023-03-28T15:36:07.655Z,8.30
2023-03-28T15:39:03.693Z,8.50
2023-03-28T15:42:15.263Z,10.70
2023-03-28T15:45:22.855Z,12.70
2023-03-28T15:48:18.094Z,7.10
2023-03-28T15:51:17.247Z,5.30
2023-03-28T15:54:06.237Z,5.40
2023-03-28T15:56:57.348Z,4.90
2023-03-28T15:59:48.635Z,7.80
2023-03-28T16:02:37.852Z,15.70
2023-03-28T16:05:35.622Z,9.30
2023-03-28T16:08:31.883Z,36.30
2023-03-28T16:11:23.491Z,37.70
2023-03-28T16:14:32.172Z,9.40
2023-03-28T16:17:37.118Z,17.00
2023-03-28T16:20:35.117Z,11.80
2023-03-28T16:23:27.232Z,19.20
2023-03-28T16:26:16.196Z,18.40
2023-03-28T16:29:05.667Z,32.60
2023-03-28T16:31:57.524Z,50.80
2023-03-28T16:34:46.341Z,19.00
2023-03-28T16:37:34.959Z,17.50
2023-03-28T16:40:23.859Z,16.50
2023-03-28T16:43:15.774Z,9.10
2023-03-28T16:46:09.799Z,12.00
2023-03-28T16:49:03.501Z,10.30
2023-03-28T16:51:54.837Z,10.80
2023-03-28T16:54:44.600Z,15.20
2023-03-28T16:57:34.076Z,29.20
2023-03-28T17:00:23.109Z,12.40
2023-03-28T17:03:12.274Z,35.00
2023-03-28T17:06:03.244Z,26.80
2023-03-28T17:08:53.303Z,18.40
2023-03-28T17:11:43.116Z,22.50
2023-03-28T17:14:32.067Z,22.30
2023-03-28T17:17:21.865Z,30.40
2023-03-28T17:20:11.800Z,22.30
2023-03-28T17:23:01.707Z,8.90
2023-03-28T17:25:54.864Z,13.30
2023-03-28T17:28:44.576Z,18.00
2023-03-28T17:31:33.827Z,17.10
2023-03-28T17:34:23.353Z,17.50
2023-03-28T17:37:12.096Z,19.40
2023-03-28T17:40:00.783Z,41.50
2023-03-28T17:42:49.502Z,24.20
2023-03-28T17:45:38.392Z,35.80
2023-03-28T17:48:27.194Z,11.40
2023-03-28T17:51:16.711Z,9.60
2023-03-28T17:54:08.320Z,7.00
2023-03-28T17:56:58.180Z,8.00
2023-03-28T17:59:47.115Z,9.10
2023-03-28T18:02:38.717Z,15.90
2023-03-28T18:05:31.538Z,18.90
2023-03-28T18:08:21.577Z,17.00
2023-03-28T18:11:14.532Z,12.20
2023-03-28T18:14:03.572Z,9.90
2023-03-28T18:16:54.963Z,8.60
2023-03-28T18:19:43.994Z,6.70
2023-03-28T18:22:33.869Z,5.80
2023-03-28T18:25:23.314Z,6.10
2023-03-28T18:28:13.015Z,5.80
2023-03-28T18:31:16.464Z,5.80
2023-03-28T18:34:06.852Z,4.70
2023-03-28T18:36:55.930Z,6.70
2023-03-28T18:39:45.479Z,6.60
2023-03-28T18:42:36.004Z,8.30
2023-03-28T18:45:25.093Z,10.90
2023-03-28T18:48:14.229Z,10.20
2023-03-28T18:51:06.849Z,10.10
2023-03-28T18:53:55.937Z,9.00
2023-03-28T18:56:44.893Z,10.10
2023-03-28T18:59:33.811Z,11.10
2023-03-28T19:02:23.867Z,8.60
2023-03-28T19:05:15.415Z,10.40
2023-03-28T19:08:04.998Z,10.60
2023-03-28T19:10:58.746Z,7.00
2023-03-28T19:13:47.700Z,6.80
2023-03-28T19:16:36.754Z,6.30
2023-03-28T19:19:26.348Z,10.80
2023-03-28T19:22:15.128Z,10.30
2023-03-28T19:25:04.126Z,10.40
2023-03-28T19:27:52.984Z,9.50
2023-03-28T19:30:41.837Z,12.60
2023-03-28T19:44:19.242Z,9.40
2023-03-28T19:47:08.207Z,10.10
2023-03-28T19:49:57.271Z,15.80
2023-03-28T19:52:46.114Z,10.70
2023-03-28T19:55:35.277Z,15.70
2023-03-28T19:58:25.274Z,12.40
2023-03-28T20:01:15.083Z,14.40
2023-03-28T20:04:04.265Z,11.50
2023-03-28T20:06:53.148Z,9.50
2023-03-28T20:09:45.865Z,9.60
2023-03-28T20:12:34.894Z,14.10
2023-03-28T20:15:23.581Z,9.50
2023-03-28T20:18:20.595Z,12.00
2023-03-28T20:21:11.996Z,13.60
2023-03-28T20:31:31.877Z,11.40
2023-03-28T20:34:21.047Z,12.50
2023-03-28T20:37:10.465Z,8.30
2023-03-28T20:40:10.225Z,10.70
2023-03-28T20:43:02.064Z,13.90
2023-03-28T20:45:55.537Z,10.60
2023-03-28T20:48:46.741Z,13.90
2023-03-28T20:51:39.313Z,13.70
2023-03-28T20:54:28.425Z,14.50
2023-03-28T20:57:17.481Z,13.60
2023-03-28T21:00:08.405Z,13.30
2023-03-28T21:02:57.072Z,13.70
2023-03-28T21:05:46.952Z,10.90
2023-03-28T21:08:38.226Z,11.90
2023-03-28T21:11:29.278Z,12.60
2023-03-28T21:17:08.703Z,13.00
2023-03-28T21:19:59.178Z,14.30
2023-03-28T21:22:48.498Z,12.30
2023-03-28T21:25:37.894Z,13.50
2023-03-28T21:28:28.282Z,11.00
2023-03-28T21:31:21.036Z,14.00
2023-03-28T21:34:10.400Z,10.50
2023-03-28T21:37:00.898Z,11.10
2023-03-28T21:39:50.287Z,10.90
2023-03-28T21:42:39.386Z,11.30
2023-03-28T21:45:28.320Z,12.60
2023-03-28T21:48:17.992Z,10.00
2023-03-28T21:51:07.311Z,13.30
2023-03-28T21:53:56.895Z,10.00
2023-03-28T21:56:46.304Z,9.60
2023-03-28T21:59:37.944Z,11.30
2023-03-28T22:02:27.410Z,15.20
2023-03-28T22:05:28.720Z,11.90
2023-03-28T22:08:18.703Z,13.00
2023-03-28T22:11:16.719Z,13.00
2023-03-28T22:14:06.482Z,12.50
2023-03-28T22:16:55.507Z,14.00
2023-03-28T22:19:44.812Z,12.40
2023-03-28T22:22:35.744Z,16.40
2023-03-28T22:25:24.916Z,14.10
2023-03-28T22:28:14.747Z,14.30
2023-03-28T22:31:04.091Z,15.10
2023-03-28T22:33:53.892Z,18.60
2023-03-28T22:36:42.974Z,14.90
2023-03-28T22:39:31.989Z,20.20
2023-03-28T22:42:21.027Z,17.00
2023-03-28T22:45:10.137Z,17.00
2023-03-28T22:48:03.247Z,17.60
2023-03-28T22:50:52.013Z,15.40
2023-03-28T22:53:41.013Z,15.10
2023-03-28T22:56:30.816Z,14.60
2023-03-28T22:59:19.883Z,19.10
2023-03-28T23:02:08.867Z,15.20
2023-03-28T23:04:58.747Z,15.70
2023-03-28T23:07:49.191Z,13.60
2023-03-28T23:10:38.095Z,19.20
2023-03-28T23:13:26.771Z,18.80
2023-03-28T23:16:15.591Z,22.40
2023-03-28T23:19:06.410Z,19.40
2023-03-28T23:21:55.208Z,16.60
2023-03-28T23:24:45.992Z,14.10
2023-03-28T23:27:37.907Z,15.50
2023-03-28T23:30:27.237Z,18.30
2023-03-28T23:33:18.470Z,18.30
2023-03-28T23:36:07.838Z,20.10
2023-03-28T23:38:56.741Z,20.30
2023-03-28T23:41:45.488Z,19.30
2023-03-28T23:44:34.203Z,18.00
2023-03-28T23:47:23.294Z,17.80
2023-03-28T23:50:12.565Z,18.70
2023-03-28T23:53:01.250Z,14.90
2023-03-28T23:55:50.711Z,15.50
2023-03-28T23:58:39.416Z,20.30
